sensor_id;sensor_type;location;lat;lon;timestamp;temperature;humidity
14359;DHT22;7263;49.418;11.064;2023-07-20T00:02:14;16.80;99.90
14359;DHT22;7263;49.418;11.064;2023-07-20T00:04:44;16.80;99.90
14359;DHT22;7263;49.418;11.064;2023-07-20T00:07:16;16.80;99.90
14359;DHT22;7263;49.418;11.064;2023-07-20T00:09:49;16.80;99.90
14359;DHT22;7263;49.418;11.064;2023-07-20T00:12:24;16.80;99.90
14359;DHT22;7263;49.418;11.064;2023-07-20T00:17:20;16.80;99.90
14359;DHT22;7263;49.418;11.064;2023-07-20T00:19:53;16.80;99.90
14359;DHT22;7263;49.418;11.064;2023-07-20T00:22:24;16.80;99.90
14359;DHT22;7263;49.418;11.064;2023-07-20T00:25:00;16.80;99.90
14359;DHT22;7263;49.418;11.064;2023-07-20T00:27:26;16.80;99.90
14359;DHT22;7263;49.418;11.064;2023-07-20T00:32:24;16.80;99.90
14359;DHT22;7263;49.418;11.064;2023-07-20T00:34:58;16.80;99.90
14359;DHT22;7263;49.418;11.064;2023-07-20T00:37:25;16.90;99.90
14359;DHT22;7263;49.418;11.064;2023-07-20T00:39:57;16.90;99.90
14359;DHT22;7263;49.418;11.064;2023-07-20T00:42:24;16.80;99.90
14359;DHT22;7263;49.418;11.064;2023-07-20T00:44:51;16.80;99.90
14359;DHT22;7263;49.418;11.064;2023-07-20T00:47:25;16.70;99.90
14359;DHT22;7263;49.418;11.064;2023-07-20T00:49:55;16.70;99.90
14359;DHT22;7263;49.418;11.064;2023-07-20T00:52:25;16.60;99.90
14359;DHT22;7263;49.418;11.064;2023-07-20T00:57:28;16.60;99.90
14359;DHT22;7263;49.418;11.064;2023-07-20T00:59:59;16.60;99.90
14359;DHT22;7263;49.418;11.064;2023-07-20T01:02:30;16.60;99.90
14359;DHT22;7263;49.418;11.064;2023-07-20T01:04:57;16.60;99.90
14359;DHT22;7263;49.418;11.064;2023-07-20T01:07:38;16.70;99.90
14359;DHT22;7263;49.418;11.064;2023-07-20T01:10:18;16.70;99.90
14359;DHT22;7263;49.418;11.064;2023-07-20T01:12:55;16.70;99.90
14359;DHT22;7263;49.418;11.064;2023-07-20T01:15:23;16.70;99.90
14359;DHT22;7263;49.418;11.064;2023-07-20T01:18:01;16.70;99.90
14359;DHT22;7263;49.418;11.064;2023-07-20T01:20:32;16.70;99.90
14359;DHT22;7263;49.418;11.064;2023-07-20T01:23:34;16.80;99.90
14359;DHT22;7263;49.418;11.064;2023-07-20T01:26:34;16.80;99.90
14359;DHT22;7263;49.418;11.064;2023-07-20T01:29:41;16.80;99.90
14359;DHT22;7263;49.418;11.064;2023-07-20T01:32:11;16.80;99.90
14359;DHT22;7263;49.418;11.064;2023-07-20T01:34:41;16.80;99.90
14359;DHT22;7263;49.418;11.064;2023-07-20T01:37:14;16.70;99.90
14359;DHT22;7263;49.418;11.064;2023-07-20T01:39:42;16.80;99.90
14359;DHT22;7263;49.418;11.064;2023-07-20T01:42:09;16.70;99.90
14359;DHT22;7263;49.418;11.064;2023-07-20T01:44:37;16.70;99.90
14359;DHT22;7263;49.418;11.064;2023-07-20T01:47:06;16.70;99.90
14359;DHT22;7263;49.418;11.064;2023-07-20T01:49:37;16.70;99.90
14359;DHT22;7263;49.418;11.064;2023-07-20T01:52:09;16.60;99.90
14359;DHT22;7263;49.418;11.064;2023-07-20T01:54:38;16.60;99.90
14359;DHT22;7263;49.418;11.064;2023-07-20T01:57:05;16.50;99.90
14359;DHT22;7263;49.418;11.064;2023-07-20T01:59:38;16.50;99.90
14359;DHT22;7263;49.418;11.064;2023-07-20T02:02:19;16.60;99.90
14359;DHT22;7263;49.418;11.064;2023-07-20T02:04:50;16.60;99.90
14359;DHT22;7263;49.418;11.064;2023-07-20T02:07:23;16.60;99.90
14359;DHT22;7263;49.418;11.064;2023-07-20T02:09:52;16.60;99.90
14359;DHT22;7263;49.418;11.064;2023-07-20T02:12:22;16.60;99.90
14359;DHT22;7263;49.418;11.064;2023-07-20T02:14:51;16.60;99.90
14359;DHT22;7263;49.418;11.064;2023-07-20T02:17:18;16.60;99.90
14359;DHT22;7263;49.418;11.064;2023-07-20T02:19:45;16.70;99.90
14359;DHT22;7263;49.418;11.064;2023-07-20T02:22:19;16.70;99.90
14359;DHT22;7263;49.418;11.064;2023-07-20T02:24:49;16.70;99.90
14359;DHT22;7263;49.418;11.064;2023-07-20T02:27:16;16.70;99.90
14359;DHT22;7263;49.418;11.064;2023-07-20T02:29:43;16.80;99.90
14359;DHT22;7263;49.418;11.064;2023-07-20T02:32:13;16.80;99.90
14359;DHT22;7263;49.418;11.064;2023-07-20T02:34:39;16.90;99.90
14359;DHT22;7263;49.418;11.064;2023-07-20T02:37:12;17.00;99.90
14359;DHT22;7263;49.418;11.064;2023-07-20T02:39:40;17.00;99.90
14359;DHT22;7263;49.418;11.064;2023-07-20T02:42:13;17.00;99.90
14359;DHT22;7263;49.418;11.064;2023-07-20T02:44:40;17.10;99.90
14359;DHT22;7263;49.418;11.064;2023-07-20T02:47:10;17.20;99.90
14359;DHT22;7263;49.418;11.064;2023-07-20T02:49:40;17.30;99.90
14359;DHT22;7263;49.418;11.064;2023-07-20T02:52:14;17.30;99.90
14359;DHT22;7263;49.418;11.064;2023-07-20T02:54:52;17.30;99.90
14359;DHT22;7263;49.418;11.064;2023-07-20T02:57:22;17.40;99.90
14359;DHT22;7263;49.418;11.064;2023-07-20T02:59:48;17.40;99.90
14359;DHT22;7263;49.418;11.064;2023-07-20T03:02:20;17.50;99.90
14359;DHT22;7263;49.418;11.064;2023-07-20T03:04:47;17.50;99.90
14359;DHT22;7263;49.418;11.064;2023-07-20T03:07:14;17.50;99.90
14359;DHT22;7263;49.418;11.064;2023-07-20T03:09:42;17.50;99.90
14359;DHT22;7263;49.418;11.064;2023-07-20T03:12:12;17.50;99.90
14359;DHT22;7263;49.418;11.064;2023-07-20T03:14:39;17.50;99.90
14359;DHT22;7263;49.418;11.064;2023-07-20T03:17:12;17.50;99.90
14359;DHT22;7263;49.418;11.064;2023-07-20T03:19:42;17.50;99.90
14359;DHT22;7263;49.418;11.064;2023-07-20T03:22:14;17.40;99.90
14359;DHT22;7263;49.418;11.064;2023-07-20T03:24:57;17.30;99.90
14359;DHT22;7263;49.418;11.064;2023-07-20T03:27:27;17.30;99.90
14359;DHT22;7263;49.418;11.064;2023-07-20T03:29:59;17.30;99.90
14359;DHT22;7263;49.418;11.064;2023-07-20T03:32:32;17.20;99.90
14359;DHT22;7263;49.418;11.064;2023-07-20T03:35:08;17.20;99.90
14359;DHT22;7263;49.418;11.064;2023-07-20T03:37:35;17.10;99.90
14359;DHT22;7263;49.418;11.064;2023-07-20T03:40:06;17.10;99.90
14359;DHT22;7263;49.418;11.064;2023-07-20T03:42:35;17.10;99.90
14359;DHT22;7263;49.418;11.064;2023-07-20T03:45:09;17.00;99.90
14359;DHT22;7263;49.418;11.064;2023-07-20T03:47:36;17.00;99.90
14359;DHT22;7263;49.418;11.064;2023-07-20T03:50:05;16.90;99.90
14359;DHT22;7263;49.418;11.064;2023-07-20T03:52:35;16.90;99.90
14359;DHT22;7263;49.418;11.064;2023-07-20T03:55:07;17.00;99.90
14359;DHT22;7263;49.418;11.064;2023-07-20T03:57:33;17.00;99.90
14359;DHT22;7263;49.418;11.064;2023-07-20T04:00:04;17.10;99.90
14359;DHT22;7263;49.418;11.064;2023-07-20T04:02:36;17.10;99.90
14359;DHT22;7263;49.418;11.064;2023-07-20T04:05:06;17.20;99.90
14359;DHT22;7263;49.418;11.064;2023-07-20T04:07:32;17.20;99.90
14359;DHT22;7263;49.418;11.064;2023-07-20T04:09:59;17.20;99.90
14359;DHT22;7263;49.418;11.064;2023-07-20T04:12:37;17.20;99.90
14359;DHT22;7263;49.418;11.064;2023-07-20T04:15:11;17.30;99.90
14359;DHT22;7263;49.418;11.064;2023-07-20T04:17:44;17.40;99.90
14359;DHT22;7263;49.418;11.064;2023-07-20T04:20:15;17.40;99.90
14359;DHT22;7263;49.418;11.064;2023-07-20T04:22:47;17.40;99.90
14359;DHT22;7263;49.418;11.064;2023-07-20T04:25:28;17.40;99.90
14359;DHT22;7263;49.418;11.064;2023-07-20T04:28:08;17.50;99.90
14359;DHT22;7263;49.418;11.064;2023-07-20T04:30:35;17.50;99.90
14359;DHT22;7263;49.418;11.064;2023-07-20T04:33:08;17.50;99.90
14359;DHT22;7263;49.418;11.064;2023-07-20T04:35:51;17.60;99.90
14359;DHT22;7263;49.418;11.064;2023-07-20T04:38:27;17.60;99.90
14359;DHT22;7263;49.418;11.064;2023-07-20T04:40:54;17.80;99.90
14359;DHT22;7263;49.418;11.064;2023-07-20T04:43:29;17.90;99.90
14359;DHT22;7263;49.418;11.064;2023-07-20T04:45:56;18.00;99.90
14359;DHT22;7263;49.418;11.064;2023-07-20T04:48:24;18.00;99.90
14359;DHT22;7263;49.418;11.064;2023-07-20T04:50:53;18.00;99.90
14359;DHT22;7263;49.418;11.064;2023-07-20T04:53:21;17.90;99.90
14359;DHT22;7263;49.418;11.064;2023-07-20T04:55:48;17.90;99.90
14359;DHT22;7263;49.418;11.064;2023-07-20T04:58:20;17.80;99.90
14359;DHT22;7263;49.418;11.064;2023-07-20T05:00:57;17.80;99.90
14359;DHT22;7263;49.418;11.064;2023-07-20T05:03:24;17.80;99.90
14359;DHT22;7263;49.418;11.064;2023-07-20T05:05:50;17.80;99.90
14359;DHT22;7263;49.418;11.064;2023-07-20T05:08:20;17.80;99.90
14359;DHT22;7263;49.418;11.064;2023-07-20T05:10:59;17.90;99.90
14359;DHT22;7263;49.418;11.064;2023-07-20T05:13:36;17.90;99.90
14359;DHT22;7263;49.418;11.064;2023-07-20T05:16:04;18.10;99.90
14359;DHT22;7263;49.418;11.064;2023-07-20T05:18:34;18.30;99.90
14359;DHT22;7263;49.418;11.064;2023-07-20T05:21:05;18.40;99.90
14359;DHT22;7263;49.418;11.064;2023-07-20T05:23:35;18.40;99.90
14359;DHT22;7263;49.418;11.064;2023-07-20T05:26:03;18.40;99.90
14359;DHT22;7263;49.418;11.064;2023-07-20T05:28:34;18.40;99.90
14359;DHT22;7263;49.418;11.064;2023-07-20T05:31:06;18.50;99.90
14359;DHT22;7263;49.418;11.064;2023-07-20T05:33:32;18.50;99.90
14359;DHT22;7263;49.418;11.064;2023-07-20T05:35:59;18.50;99.90
14359;DHT22;7263;49.418;11.064;2023-07-20T05:38:33;18.50;99.90
14359;DHT22;7263;49.418;11.064;2023-07-20T05:41:00;18.50;99.90
14359;DHT22;7263;49.418;11.064;2023-07-20T05:43:29;18.50;99.90
14359;DHT22;7263;49.418;11.064;2023-07-20T05:46:01;18.40;99.90
14359;DHT22;7263;49.418;11.064;2023-07-20T05:48:29;18.50;99.90
14359;DHT22;7263;49.418;11.064;2023-07-20T05:51:01;18.60;99.90
14359;DHT22;7263;49.418;11.064;2023-07-20T05:53:28;18.60;99.90
14359;DHT22;7263;49.418;11.064;2023-07-20T05:56:00;18.70;99.90
14359;DHT22;7263;49.418;11.064;2023-07-20T05:58:26;18.90;99.90
14359;DHT22;7263;49.418;11.064;2023-07-20T06:00:56;19.00;99.90
14359;DHT22;7263;49.418;11.064;2023-07-20T06:03:26;19.20;99.90
14359;DHT22;7263;49.418;11.064;2023-07-20T06:06:05;19.40;99.90
14359;DHT22;7263;49.418;11.064;2023-07-20T06:08:34;19.40;99.90
14359;DHT22;7263;49.418;11.064;2023-07-20T06:11:03;19.50;99.90
14359;DHT22;7263;49.418;11.064;2023-07-20T06:13:37;19.60;99.90
14359;DHT22;7263;49.418;11.064;2023-07-20T06:16:11;19.90;99.90
14359;DHT22;7263;49.418;11.064;2023-07-20T06:18:41;20.80;99.90
14359;DHT22;7263;49.418;11.064;2023-07-20T06:21:09;20.90;99.90
14359;DHT22;7263;49.418;11.064;2023-07-20T06:23:42;21.20;99.90
14359;DHT22;7263;49.418;11.064;2023-07-20T06:26:15;21.50;99.90
14359;DHT22;7263;49.418;11.064;2023-07-20T06:28:51;21.50;99.90
14359;DHT22;7263;49.418;11.064;2023-07-20T06:31:22;19.40;99.90
14359;DHT22;7263;49.418;11.064;2023-07-20T06:33:52;21.60;99.90
14359;DHT22;7263;49.418;11.064;2023-07-20T06:36:23;21.80;99.90
14359;DHT22;7263;49.418;11.064;2023-07-20T06:38:51;22.00;99.90
14359;DHT22;7263;49.418;11.064;2023-07-20T06:41:18;22.50;99.90
14359;DHT22;7263;49.418;11.064;2023-07-20T06:43:48;22.80;99.90
14359;DHT22;7263;49.418;11.064;2023-07-20T06:46:27;22.90;99.90
14359;DHT22;7263;49.418;11.064;2023-07-20T06:48:54;23.10;99.90
14359;DHT22;7263;49.418;11.064;2023-07-20T06:51:25;23.50;99.90
14359;DHT22;7263;49.418;11.064;2023-07-20T06:53:57;23.70;99.90
14359;DHT22;7263;49.418;11.064;2023-07-20T06:56:30;23.80;99.90
14359;DHT22;7263;49.418;11.064;2023-07-20T06:58:59;23.80;99.90
14359;DHT22;7263;49.418;11.064;2023-07-20T07:01:29;24.00;99.90
14359;DHT22;7263;49.418;11.064;2023-07-20T07:03:55;24.20;99.90
14359;DHT22;7263;49.418;11.064;2023-07-20T07:06:23;24.30;99.90
14359;DHT22;7263;49.418;11.064;2023-07-20T07:08:58;24.50;99.90
14359;DHT22;7263;49.418;11.064;2023-07-20T07:11:28;24.50;99.90
14359;DHT22;7263;49.418;11.064;2023-07-20T07:14:05;24.40;99.90
14359;DHT22;7263;49.418;11.064;2023-07-20T07:16:32;24.60;99.90
14359;DHT22;7263;49.418;11.064;2023-07-20T07:18:59;24.90;99.90
14359;DHT22;7263;49.418;11.064;2023-07-20T07:21:33;25.10;99.90
14359;DHT22;7263;49.418;11.064;2023-07-20T07:24:00;25.30;99.90
14359;DHT22;7263;49.418;11.064;2023-07-20T07:26:29;25.50;99.90
14359;DHT22;7263;49.418;11.064;2023-07-20T07:28:59;25.80;99.90
14359;DHT22;7263;49.418;11.064;2023-07-20T07:31:26;26.00;99.90
14359;DHT22;7263;49.418;11.064;2023-07-20T07:33:57;25.90;99.90
14359;DHT22;7263;49.418;11.064;2023-07-20T07:36:27;25.60;99.90
14359;DHT22;7263;49.418;11.064;2023-07-20T07:38:56;25.70;99.90
14359;DHT22;7263;49.418;11.064;2023-07-20T07:41:22;25.80;99.90
14359;DHT22;7263;49.418;11.064;2023-07-20T07:43:49;26.10;99.90
14359;DHT22;7263;49.418;11.064;2023-07-20T07:46:21;25.90;99.90
14359;DHT22;7263;49.418;11.064;2023-07-20T07:48:53;25.60;99.90
14359;DHT22;7263;49.418;11.064;2023-07-20T07:51:22;25.30;99.90
14359;DHT22;7263;49.418;11.064;2023-07-20T07:53:56;25.20;99.90
14359;DHT22;7263;49.418;11.064;2023-07-20T07:56:23;24.90;99.90
14359;DHT22;7263;49.418;11.064;2023-07-20T07:58:50;24.30;99.90
14359;DHT22;7263;49.418;11.064;2023-07-20T08:01:17;23.80;99.90
14359;DHT22;7263;49.418;11.064;2023-07-20T08:03:47;23.60;99.90
14359;DHT22;7263;49.418;11.064;2023-07-20T08:06:14;23.80;99.90
14359;DHT22;7263;49.418;11.064;2023-07-20T08:08:44;23.90;99.90
14359;DHT22;7263;49.418;11.064;2023-07-20T08:11:24;23.80;99.90
14359;DHT22;7263;49.418;11.064;2023-07-20T08:14:05;23.60;99.90
14359;DHT22;7263;49.418;11.064;2023-07-20T08:16:32;23.60;99.90
14359;DHT22;7263;49.418;11.064;2023-07-20T08:19:03;24.10;99.90
14359;DHT22;7263;49.418;11.064;2023-07-20T08:21:41;24.70;99.90
14359;DHT22;7263;49.418;11.064;2023-07-20T08:24:07;25.40;99.90
14359;DHT22;7263;49.418;11.064;2023-07-20T08:26:38;25.90;99.30
14359;DHT22;7263;49.418;11.064;2023-07-20T08:29:05;26.30;98.90
14359;DHT22;7263;49.418;11.064;2023-07-20T08:31:32;26.60;98.20
14359;DHT22;7263;49.418;11.064;2023-07-20T08:33:59;27.00;97.60
14359;DHT22;7263;49.418;11.064;2023-07-20T08:36:26;27.30;97.00
14359;DHT22;7263;49.418;11.064;2023-07-20T08:38:55;27.50;96.40
14359;DHT22;7263;49.418;11.064;2023-07-20T08:41:27;27.50;95.90
14359;DHT22;7263;49.418;11.064;2023-07-20T08:44:04;27.30;96.10
14359;DHT22;7263;49.418;11.064;2023-07-20T08:46:31;27.40;95.90
14359;DHT22;7263;49.418;11.064;2023-07-20T08:49:01;27.30;95.20
14359;DHT22;7263;49.418;11.064;2023-07-20T08:51:29;29.20;95.70
14359;DHT22;7263;49.418;11.064;2023-07-20T08:53:57;26.80;95.10
14359;DHT22;7263;49.418;11.064;2023-07-20T08:56:27;26.30;95.40
14359;DHT22;7263;49.418;11.064;2023-07-20T08:59:04;26.00;95.80
14359;DHT22;7263;49.418;11.064;2023-07-20T09:01:37;25.60;96.00
14359;DHT22;7263;49.418;11.064;2023-07-20T09:04:06;25.40;96.80
14359;DHT22;7263;49.418;11.064;2023-07-20T09:06:36;25.80;96.10
14359;DHT22;7263;49.418;11.064;2023-07-20T09:09:06;26.10;96.40
14359;DHT22;7263;49.418;11.064;2023-07-20T09:11:32;26.50;95.30
14359;DHT22;7263;49.418;11.064;2023-07-20T09:14:11;26.80;94.70
14359;DHT22;7263;49.418;11.064;2023-07-20T09:16:47;26.90;93.80
14359;DHT22;7263;49.418;11.064;2023-07-20T09:19:22;27.30;93.40
14359;DHT22;7263;49.418;11.064;2023-07-20T09:21:50;27.40;92.70
14359;DHT22;7263;49.418;11.064;2023-07-20T09:24:18;27.90;93.30
14359;DHT22;7263;49.418;11.064;2023-07-20T09:26:47;28.30;92.70
14359;DHT22;7263;49.418;11.064;2023-07-20T09:29:19;28.30;91.80
14359;DHT22;7263;49.418;11.064;2023-07-20T09:32:00;28.40;91.30
14359;DHT22;7263;49.418;11.064;2023-07-20T09:34:31;28.30;91.50
14359;DHT22;7263;49.418;11.064;2023-07-20T09:37:08;28.50;91.20
14359;DHT22;7263;49.418;11.064;2023-07-20T09:39:45;28.90;91.00
14359;DHT22;7263;49.418;11.064;2023-07-20T09:42:20;29.20;90.70
14359;DHT22;7263;49.418;11.064;2023-07-20T09:44:49;29.00;91.20
14359;DHT22;7263;49.418;11.064;2023-07-20T09:47:22;29.10;89.70
14359;DHT22;7263;49.418;11.064;2023-07-20T09:49:57;28.30;89.40
14359;DHT22;7263;49.418;11.064;2023-07-20T09:52:29;29.40;90.00
14359;DHT22;7263;49.418;11.064;2023-07-20T09:54:59;29.60;88.80
14359;DHT22;7263;49.418;11.064;2023-07-20T09:57:33;29.00;87.20
14359;DHT22;7263;49.418;11.064;2023-07-20T10:00:07;28.10;88.30
14359;DHT22;7263;49.418;11.064;2023-07-20T10:02:42;27.70;90.00
14359;DHT22;7263;49.418;11.064;2023-07-20T10:05:14;27.70;89.60
14359;DHT22;7263;49.418;11.064;2023-07-20T10:07:45;27.80;88.80
14359;DHT22;7263;49.418;11.064;2023-07-20T10:10:19;27.40;87.40
14359;DHT22;7263;49.418;11.064;2023-07-20T10:12:57;27.40;88.50
14359;DHT22;7263;49.418;11.064;2023-07-20T10:15:29;27.50;88.20
14359;DHT22;7263;49.418;11.064;2023-07-20T10:18:02;27.70;86.50
14359;DHT22;7263;49.418;11.064;2023-07-20T10:20:42;27.80;88.00
14359;DHT22;7263;49.418;11.064;2023-07-20T10:23:09;28.10;86.70
14359;DHT22;7263;49.418;11.064;2023-07-20T10:25:37;28.30;87.10
14359;DHT22;7263;49.418;11.064;2023-07-20T10:28:05;28.60;86.60
14359;DHT22;7263;49.418;11.064;2023-07-20T10:30:37;28.80;85.70
14359;DHT22;7263;49.418;11.064;2023-07-20T10:33:10;28.50;84.50
14359;DHT22;7263;49.418;11.064;2023-07-20T10:35:50;27.80;85.80
14359;DHT22;7263;49.418;11.064;2023-07-20T10:38:17;27.00;86.60
14359;DHT22;7263;49.418;11.064;2023-07-20T10:40:57;26.80;87.40
14359;DHT22;7263;49.418;11.064;2023-07-20T10:43:26;27.20;88.40
14359;DHT22;7263;49.418;11.064;2023-07-20T10:45:55;28.00;87.60
14359;DHT22;7263;49.418;11.064;2023-07-20T10:48:25;28.20;86.60
14359;DHT22;7263;49.418;11.064;2023-07-20T10:51:14;28.30;86.10
14359;DHT22;7263;49.418;11.064;2023-07-20T10:53:49;28.70;86.70
14359;DHT22;7263;49.418;11.064;2023-07-20T10:56:20;29.30;82.60
14359;DHT22;7263;49.418;11.064;2023-07-20T10:58:47;29.60;85.00
14359;DHT22;7263;49.418;11.064;2023-07-20T11:01:30;30.00;83.20
14359;DHT22;7263;49.418;11.064;2023-07-20T11:03:58;30.20;81.20
14359;DHT22;7263;49.418;11.064;2023-07-20T11:06:33;30.40;80.20
14359;DHT22;7263;49.418;11.064;2023-07-20T11:09:06;30.30;80.60
14359;DHT22;7263;49.418;11.064;2023-07-20T11:11:42;29.20;79.00
14359;DHT22;7263;49.418;11.064;2023-07-20T11:14:24;28.50;81.40
14359;DHT22;7263;49.418;11.064;2023-07-20T11:16:55;28.50;81.60
14359;DHT22;7263;49.418;11.064;2023-07-20T11:19:26;28.70;82.20
14359;DHT22;7263;49.418;11.064;2023-07-20T11:21:57;29.20;80.70
14359;DHT22;7263;49.418;11.064;2023-07-20T11:24:26;29.30;79.50
14359;DHT22;7263;49.418;11.064;2023-07-20T11:26:58;29.60;79.00
14359;DHT22;7263;49.418;11.064;2023-07-20T11:29:26;29.50;78.30
14359;DHT22;7263;49.418;11.064;2023-07-20T11:31:56;29.40;80.00
14359;DHT22;7263;49.418;11.064;2023-07-20T11:34:30;29.70;78.60
14359;DHT22;7263;49.418;11.064;2023-07-20T11:37:01;29.80;76.30
14359;DHT22;7263;49.418;11.064;2023-07-20T11:39:31;29.20;76.50
14359;DHT22;7263;49.418;11.064;2023-07-20T11:44:28;28.30;76.30
14359;DHT22;7263;49.418;11.064;2023-07-20T11:47:02;27.80;76.20
14359;DHT22;7263;49.418;11.064;2023-07-20T11:49:34;27.90;75.50
14359;DHT22;7263;49.418;11.064;2023-07-20T11:52:06;28.10;75.60
14359;DHT22;7263;49.418;11.064;2023-07-20T11:54:34;28.50;75.70
14359;DHT22;7263;49.418;11.064;2023-07-20T11:57:04;28.90;76.50
14359;DHT22;7263;49.418;11.064;2023-07-20T11:59:34;33.20;80.50
14359;DHT22;7263;49.418;11.064;2023-07-20T12:02:06;29.50;77.90
14359;DHT22;7263;49.418;11.064;2023-07-20T12:04:35;29.50;77.00
14359;DHT22;7263;49.418;11.064;2023-07-20T12:07:07;29.50;75.00
14359;DHT22;7263;49.418;11.064;2023-07-20T12:09:33;29.10;74.10
14359;DHT22;7263;49.418;11.064;2023-07-20T12:12:11;28.70;74.10
14359;DHT22;7263;49.418;11.064;2023-07-20T12:14:48;28.70;75.00
14359;DHT22;7263;49.418;11.064;2023-07-20T12:17:16;29.00;73.60
14359;DHT22;7263;49.418;11.064;2023-07-20T12:19:43;29.00;72.90
14359;DHT22;7263;49.418;11.064;2023-07-20T12:22:10;28.70;72.40
14359;DHT22;7263;49.418;11.064;2023-07-20T12:24:42;28.70;73.60
14359;DHT22;7263;49.418;11.064;2023-07-20T12:27:13;28.80;74.60
14359;DHT22;7263;49.418;11.064;2023-07-20T12:29:48;28.80;72.20
14359;DHT22;7263;49.418;11.064;2023-07-20T12:32:18;28.60;73.00
14359;DHT22;7263;49.418;11.064;2023-07-20T12:34:51;28.70;71.60
14359;DHT22;7263;49.418;11.064;2023-07-20T12:37:18;28.60;70.20
14359;DHT22;7263;49.418;11.064;2023-07-20T12:39:55;28.20;69.90
14359;DHT22;7263;49.418;11.064;2023-07-20T12:42:25;27.80;70.20
14359;DHT22;7263;49.418;11.064;2023-07-20T12:44:54;27.50;71.30
14359;DHT22;7263;49.418;11.064;2023-07-20T12:47:29;27.30;71.10
14359;DHT22;7263;49.418;11.064;2023-07-20T12:49:56;27.00;71.00
14359;DHT22;7263;49.418;11.064;2023-07-20T12:52:29;27.10;72.40
14359;DHT22;7263;49.418;11.064;2023-07-20T12:59:50;27.00;71.10
14359;DHT22;7263;49.418;11.064;2023-07-20T13:02:32;26.90;72.60
14359;DHT22;7263;49.418;11.064;2023-07-20T13:05:01;26.80;71.00
14359;DHT22;7263;49.418;11.064;2023-07-20T13:07:32;26.70;73.50
14359;DHT22;7263;49.418;11.064;2023-07-20T13:09:59;26.70;73.10
14359;DHT22;7263;49.418;11.064;2023-07-20T13:12:30;26.80;73.30
14359;DHT22;7263;49.418;11.064;2023-07-20T13:15:08;26.80;71.90
14359;DHT22;7263;49.418;11.064;2023-07-20T13:17:41;26.80;73.80
14359;DHT22;7263;49.418;11.064;2023-07-20T13:20:26;26.80;74.60
14359;DHT22;7263;49.418;11.064;2023-07-20T13:22:56;26.70;73.60
14359;DHT22;7263;49.418;11.064;2023-07-20T13:25:23;26.60;72.80
14359;DHT22;7263;49.418;11.064;2023-07-20T13:27:50;26.50;73.30
14359;DHT22;7263;49.418;11.064;2023-07-20T13:30:19;26.40;73.90
14359;DHT22;7263;49.418;11.064;2023-07-20T13:32:47;26.40;74.80
14359;DHT22;7263;49.418;11.064;2023-07-20T13:35:16;26.40;75.60
14359;DHT22;7263;49.418;11.064;2023-07-20T13:37:46;26.50;74.30
14359;DHT22;7263;49.418;11.064;2023-07-20T13:40:15;26.50;74.00
14359;DHT22;7263;49.418;11.064;2023-07-20T13:42:52;26.50;73.20
14359;DHT22;7263;49.418;11.064;2023-07-20T13:50:22;26.40;73.20
14359;DHT22;7263;49.418;11.064;2023-07-20T13:52:50;26.40;73.90
14359;DHT22;7263;49.418;11.064;2023-07-20T13:55:17;26.50;73.40
14359;DHT22;7263;49.418;11.064;2023-07-20T13:57:44;26.50;73.90
14359;DHT22;7263;49.418;11.064;2023-07-20T14:00:14;26.50;71.60
14359;DHT22;7263;49.418;11.064;2023-07-20T14:02:45;26.40;72.70
14359;DHT22;7263;49.418;11.064;2023-07-20T14:05:14;27.20;72.70
14359;DHT22;7263;49.418;11.064;2023-07-20T14:08:06;26.40;72.40
14359;DHT22;7263;49.418;11.064;2023-07-20T14:13:05;26.50;71.90
14359;DHT22;7263;49.418;11.064;2023-07-20T14:15:34;26.50;70.50
14359;DHT22;7263;49.418;11.064;2023-07-20T14:18:01;26.50;72.30
14359;DHT22;7263;49.418;11.064;2023-07-20T14:20:31;26.50;71.10
14359;DHT22;7263;49.418;11.064;2023-07-20T14:23:04;26.60;71.60
14359;DHT22;7263;49.418;11.064;2023-07-20T14:25:38;26.60;71.70
14359;DHT22;7263;49.418;11.064;2023-07-20T14:28:08;26.80;70.20
14359;DHT22;7263;49.418;11.064;2023-07-20T14:30:38;26.80;69.60
14359;DHT22;7263;49.418;11.064;2023-07-20T14:33:07;26.80;69.70
14359;DHT22;7263;49.418;11.064;2023-07-20T14:35:34;26.90;69.80
14359;DHT22;7263;49.418;11.064;2023-07-20T14:38:02;26.80;69.00
14359;DHT22;7263;49.418;11.064;2023-07-20T14:42:56;26.50;72.70
14359;DHT22;7263;49.418;11.064;2023-07-20T14:48:08;26.20;71.00
14359;DHT22;7263;49.418;11.064;2023-07-20T14:50:40;26.10;71.90
14359;DHT22;7263;49.418;11.064;2023-07-20T14:53:13;26.20;72.80
14359;DHT22;7263;49.418;11.064;2023-07-20T14:55:50;26.20;73.10
14359;DHT22;7263;49.418;11.064;2023-07-20T14:58:16;26.30;72.00
14359;DHT22;7263;49.418;11.064;2023-07-20T15:00:43;26.40;70.90
14359;DHT22;7263;49.418;11.064;2023-07-20T15:03:13;26.30;70.50
14359;DHT22;7263;49.418;11.064;2023-07-20T15:08:12;26.00;73.40
14359;DHT22;7263;49.418;11.064;2023-07-20T15:10:42;26.00;73.10
14359;DHT22;7263;49.418;11.064;2023-07-20T15:13:12;26.00;74.00
14359;DHT22;7263;49.418;11.064;2023-07-20T15:15:39;25.90;73.60
14359;DHT22;7263;49.418;11.064;2023-07-20T15:18:07;25.80;73.60
14359;DHT22;7263;49.418;11.064;2023-07-20T15:20:34;25.70;73.20
14359;DHT22;7263;49.418;11.064;2023-07-20T15:25:48;25.50;74.10
14359;DHT22;7263;49.418;11.064;2023-07-20T15:30:43;25.40;74.20
14359;DHT22;7263;49.418;11.064;2023-07-20T15:33:16;25.20;75.20
14359;DHT22;7263;49.418;11.064;2023-07-20T15:40:53;24.90;76.60
14359;DHT22;7263;49.418;11.064;2023-07-20T15:43:21;25.00;76.60
14359;DHT22;7263;49.418;11.064;2023-07-20T15:45:50;25.10;75.10
14359;DHT22;7263;49.418;11.064;2023-07-20T15:48:26;25.10;74.60
14359;DHT22;7263;49.418;11.064;2023-07-20T15:53:26;25.20;74.60
14359;DHT22;7263;49.418;11.064;2023-07-20T15:55:57;25.30;73.90
14359;DHT22;7263;49.418;11.064;2023-07-20T16:00:56;25.30;74.00
14359;DHT22;7263;49.418;11.064;2023-07-20T16:03:23;25.10;73.30
14359;DHT22;7263;49.418;11.064;2023-07-20T16:06:03;25.20;74.30
14359;DHT22;7263;49.418;11.064;2023-07-20T16:08:35;25.20;72.90
14359;DHT22;7263;49.418;11.064;2023-07-20T16:11:06;25.10;72.70
14359;DHT22;7263;49.418;11.064;2023-07-20T16:13:39;25.10;73.90
14359;DHT22;7263;49.418;11.064;2023-07-20T16:16:08;25.00;72.20
14359;DHT22;7263;49.418;11.064;2023-07-20T16:25:57;24.80;72.60
14359;DHT22;7263;49.418;11.064;2023-07-20T16:35:55;24.80;73.70
14359;DHT22;7263;49.418;11.064;2023-07-20T16:38:22;24.70;73.80
14359;DHT22;7263;49.418;11.064;2023-07-20T16:40:49;24.70;74.80
14359;DHT22;7263;49.418;11.064;2023-07-20T16:43:16;24.70;75.00
14359;DHT22;7263;49.418;11.064;2023-07-20T16:45:57;24.60;74.00
14359;DHT22;7263;49.418;11.064;2023-07-20T16:48:24;24.50;74.70
14359;DHT22;7263;49.418;11.064;2023-07-20T16:50:51;24.40;74.80
14359;DHT22;7263;49.418;11.064;2023-07-20T16:58:27;24.30;74.60
14359;DHT22;7263;49.418;11.064;2023-07-20T17:01:03;24.30;74.40